createdAt,value
2022-11-12T00:01:50.447Z,40.55
2022-11-12T00:04:36.522Z,30.08
2022-11-12T00:07:22.050Z,32.95
2022-11-12T00:10:07.985Z,31.48
2022-11-12T00:12:53.603Z,30.35
2022-11-12T00:15:39.645Z,29.15
2022-11-12T00:18:25.804Z,30.80
2022-11-12T00:21:11.393Z,30.30
2022-11-12T00:23:56.872Z,28.92
2022-11-12T00:26:42.288Z,31.85
2022-11-12T00:29:27.741Z,26.05
2022-11-12T00:32:13.835Z,29.80
2022-11-12T00:35:02.422Z,26.73
2022-11-12T00:37:53.926Z,26.38
2022-11-12T00:40:39.427Z,28.23
2022-11-12T00:43:25.299Z,25.73
2022-11-12T00:46:11.806Z,27.73
2022-11-12T00:48:57.715Z,25.08
2022-11-12T00:51:43.757Z,27.02
2022-11-12T00:54:29.672Z,28.70
2022-11-12T00:57:15.103Z,25.00
2022-11-12T01:00:01.020Z,29.95
2022-11-12T01:02:51.111Z,28.58
2022-11-12T01:05:37.378Z,24.63
2022-11-12T01:08:23.017Z,23.58
2022-11-12T01:11:15.488Z,25.52
2022-11-12T01:14:11.063Z,28.42
2022-11-12T01:16:56.899Z,23.15
2022-11-12T01:19:42.359Z,23.30
2022-11-12T01:22:28.152Z,28.60
2022-11-12T01:25:13.727Z,27.08
2022-11-12T01:27:59.433Z,25.88
2022-11-12T01:30:44.747Z,30.55
2022-11-12T01:33:30.322Z,26.35
2022-11-12T01:36:17.607Z,28.60
2022-11-12T01:39:04.768Z,25.38
2022-11-12T01:41:50.584Z,27.63
2022-11-12T01:44:40.111Z,26.90
2022-11-12T01:47:35.248Z,29.80
2022-11-12T01:50:25.580Z,26.65
2022-11-12T01:53:13.705Z,22.85
2022-11-12T01:56:00.805Z,28.55
2022-11-12T01:58:48.764Z,26.00
2022-11-12T02:01:36.697Z,22.77
2022-11-12T02:04:23.108Z,26.33
2022-11-12T02:07:09.793Z,23.73
2022-11-12T02:09:55.320Z,27.90
2022-11-12T02:13:00.110Z,25.83
2022-11-12T02:15:45.596Z,21.50
2022-11-12T02:18:31.345Z,25.52
2022-11-12T02:21:22.260Z,29.13
2022-11-12T02:24:14.289Z,26.17
2022-11-12T02:27:00.123Z,23.80
2022-11-12T02:29:48.436Z,26.92
2022-11-12T02:32:33.814Z,22.95
2022-11-12T02:35:19.420Z,24.83
2022-11-12T02:38:06.550Z,22.45
2022-11-12T02:40:52.377Z,26.70
2022-11-12T02:43:39.826Z,26.52
2022-11-12T02:46:25.739Z,22.15
2022-11-12T02:49:11.324Z,23.85
2022-11-12T02:51:57.206Z,26.15
2022-11-12T02:54:42.790Z,27.10
2022-11-12T02:57:30.371Z,22.63
2022-11-12T03:00:16.475Z,24.02
2022-11-12T03:03:02.648Z,22.92
2022-11-12T03:05:57.253Z,26.08
2022-11-12T03:08:42.992Z,26.05
2022-11-12T03:11:28.933Z,21.45
2022-11-12T03:14:15.121Z,21.35
2022-11-12T03:17:00.738Z,22.98
2022-11-12T03:19:46.440Z,20.25
2022-11-12T03:22:31.888Z,22.13
2022-11-12T03:25:17.552Z,22.17
2022-11-12T03:28:10.016Z,24.00
2022-11-12T03:31:00.194Z,22.30
2022-11-12T03:33:46.165Z,23.20
2022-11-12T03:36:31.992Z,22.77
2022-11-12T03:39:17.287Z,24.33
2022-11-12T03:42:03.260Z,20.20
2022-11-12T03:44:48.880Z,22.05
2022-11-12T03:47:34.837Z,22.80
2022-11-12T03:50:22.341Z,24.88
2022-11-12T03:53:08.334Z,24.55
2022-11-12T03:55:53.973Z,26.58
2022-11-12T03:58:39.627Z,23.25
2022-11-12T04:01:25.460Z,25.00
2022-11-12T04:04:11.303Z,23.17
2022-11-12T04:07:15.385Z,22.27
2022-11-12T04:10:01.274Z,24.33
2022-11-12T04:13:05.025Z,26.77
2022-11-12T04:16:10.588Z,27.65
2022-11-12T04:19:17.355Z,23.02
2022-11-12T04:22:12.229Z,20.63
2022-11-12T04:25:16.579Z,22.48
2022-11-12T04:28:02.388Z,20.55
2022-11-12T04:30:48.022Z,22.35
2022-11-12T04:33:33.753Z,21.40
2022-11-12T04:36:19.252Z,26.70
2022-11-12T04:39:04.932Z,22.90
2022-11-12T04:42:25.445Z,22.65
2022-11-12T04:45:11.292Z,24.65
2022-11-12T04:47:56.535Z,23.02
2022-11-12T04:50:45.870Z,23.45
2022-11-12T04:53:31.552Z,24.00
2022-11-12T04:56:17.142Z,25.10
2022-11-12T04:59:02.636Z,25.73
2022-11-12T05:01:48.539Z,27.10
2022-11-12T05:04:34.265Z,25.80
2022-11-12T05:07:20.085Z,23.60
2022-11-12T05:10:05.806Z,26.52
2022-11-12T05:12:51.711Z,27.65
2022-11-12T05:15:37.163Z,29.88
2022-11-12T05:18:23.270Z,33.03
2022-11-12T05:21:27.400Z,27.17
2022-11-12T05:24:27.591Z,27.35
2022-11-12T05:27:20.615Z,32.00
2022-11-12T05:30:06.817Z,34.70
2022-11-12T05:32:52.397Z,28.60
2022-11-12T05:35:38.014Z,36.78
2022-11-12T05:38:23.531Z,30.02
2022-11-12T05:41:09.619Z,27.65
2022-11-12T05:43:55.237Z,30.23
2022-11-12T05:46:40.928Z,34.30
2022-11-12T05:49:26.185Z,27.83
2022-11-12T05:52:11.669Z,35.08
2022-11-12T05:54:57.240Z,29.27
2022-11-12T05:57:42.579Z,32.22
2022-11-12T06:00:27.992Z,28.23
2022-11-12T06:03:13.655Z,33.00
2022-11-12T06:05:59.603Z,35.55
2022-11-12T06:08:45.577Z,33.75
2022-11-12T06:11:31.518Z,29.50
2022-11-12T06:14:17.161Z,30.30
2022-11-12T06:17:02.764Z,25.88
2022-11-12T06:19:48.554Z,33.42
2022-11-12T06:22:34.516Z,34.13
2022-11-12T06:25:20.288Z,29.75
2022-11-12T06:28:05.777Z,36.15
2022-11-12T06:30:51.475Z,33.00
2022-11-12T06:33:37.276Z,33.67
2022-11-12T06:36:22.910Z,35.17
2022-11-12T06:39:08.304Z,37.00
2022-11-12T06:41:54.938Z,35.78
2022-11-12T06:44:40.517Z,36.65
2022-11-12T06:47:26.756Z,31.85
2022-11-12T06:50:12.453Z,39.08
2022-11-12T06:52:59.397Z,37.95
2022-11-12T06:55:44.872Z,35.47
2022-11-12T06:58:30.843Z,36.15
2022-11-12T07:01:17.441Z,38.10
2022-11-12T07:04:03.773Z,33.67
2022-11-12T07:06:49.047Z,37.80
2022-11-12T07:09:34.989Z,36.75
2022-11-12T07:12:20.734Z,43.97
2022-11-12T07:15:07.013Z,46.85
2022-11-12T07:17:52.314Z,45.05
2022-11-12T07:20:38.160Z,46.15
2022-11-12T07:23:24.128Z,48.90
2022-11-12T07:26:13.947Z,47.08
2022-11-12T07:28:59.444Z,46.05
2022-11-12T07:31:44.943Z,48.38
2022-11-12T07:34:31.828Z,45.10
2022-11-12T07:37:17.939Z,43.78
2022-11-12T07:40:04.814Z,47.13
2022-11-12T07:42:50.627Z,49.03
2022-11-12T07:45:36.438Z,46.95
2022-11-12T07:48:21.917Z,43.28
2022-11-12T07:51:14.331Z,44.88
2022-11-12T07:54:00.360Z,48.05
2022-11-12T07:56:46.057Z,46.45
2022-11-12T07:59:31.593Z,45.50
2022-11-12T08:02:17.526Z,46.35
2022-11-12T08:05:06.174Z,52.95
2022-11-12T08:07:57.114Z,44.55
2022-11-12T08:10:42.928Z,48.03
2022-11-12T08:13:28.269Z,45.00
2022-11-12T08:16:14.471Z,51.80
2022-11-12T08:19:01.245Z,49.60
2022-11-12T08:21:47.408Z,45.70
2022-11-12T08:24:33.222Z,42.67
2022-11-12T08:27:18.983Z,50.35
2022-11-12T08:30:05.606Z,44.97
2022-11-12T08:33:03.601Z,51.38
2022-11-12T08:35:49.397Z,45.30
2022-11-12T08:38:35.435Z,43.58
2022-11-12T08:41:21.191Z,48.58
2022-11-12T08:44:08.723Z,55.10
2022-11-12T08:46:54.675Z,46.83
2022-11-12T08:49:45.136Z,44.13
2022-11-12T08:52:33.297Z,41.80
2022-11-12T08:55:19.077Z,46.13
2022-11-12T08:58:06.915Z,48.33
2022-11-12T09:00:53.593Z,50.85
2022-11-12T09:03:38.925Z,46.00
2022-11-12T09:06:43.373Z,46.50
2022-11-12T09:09:29.302Z,47.17
2022-11-12T09:12:19.716Z,46.58
2022-11-12T09:15:36.532Z,44.50
2022-11-12T09:18:17.518Z,47.65
2022-11-12T09:21:11.632Z,48.92
2022-11-12T09:23:57.283Z,43.75
2022-11-12T09:26:43.487Z,46.22
2022-11-12T09:29:29.095Z,42.83
2022-11-12T09:32:15.301Z,52.10
2022-11-12T09:35:00.964Z,49.33
2022-11-12T09:37:46.761Z,59.45
2022-11-12T09:40:53.435Z,54.40
2022-11-12T09:43:51.867Z,50.92
2022-11-12T09:46:50.451Z,48.10
2022-11-12T09:49:43.264Z,49.28
2022-11-12T09:52:31.892Z,56.10
2022-11-12T09:55:49.907Z,55.45
2022-11-12T09:58:36.388Z,69.68
2022-11-12T10:02:03.449Z,53.30
2022-11-12T10:04:58.816Z,56.28
2022-11-12T10:08:03.726Z,53.67
2022-11-12T10:10:58.621Z,51.88
2022-11-12T10:13:45.371Z,52.42
2022-11-12T10:17:08.358Z,50.55
2022-11-12T10:20:16.592Z,57.38
2022-11-12T10:23:15.936Z,55.33
2022-11-12T10:26:18.223Z,51.45
2022-11-12T10:29:11.112Z,50.95
2022-11-12T10:32:05.063Z,50.35
2022-11-12T10:34:52.793Z,50.85
2022-11-12T10:37:45.542Z,52.70
2022-11-12T10:40:33.124Z,61.10
2022-11-12T10:43:18.987Z,49.70
2022-11-12T10:46:19.663Z,55.53
2022-11-12T10:49:21.590Z,55.95
2022-11-12T10:52:21.663Z,56.90
2022-11-12T10:55:18.024Z,52.05
2022-11-12T10:58:09.611Z,49.88
2022-11-12T11:01:01.836Z,49.20
2022-11-12T11:06:36.771Z,60.13
2022-11-12T11:09:22.718Z,52.17
2022-11-12T11:12:23.715Z,48.47
2022-11-12T11:15:21.849Z,53.72
2022-11-12T11:18:12.111Z,48.75
2022-11-12T11:21:06.283Z,54.63
2022-11-12T11:24:38.649Z,48.17
2022-11-12T11:27:42.547Z,44.30
2022-11-12T11:30:28.497Z,46.13
2022-11-12T11:33:32.653Z,44.17
2022-11-12T11:36:28.181Z,45.58
2022-11-12T11:39:43.326Z,42.92
2022-11-12T11:42:32.046Z,47.63
2022-11-12T11:45:49.730Z,44.95
2022-11-12T11:48:57.177Z,47.58
2022-11-12T11:52:03.722Z,47.58
2022-11-12T11:55:08.336Z,48.38
2022-11-12T11:58:10.252Z,43.05
2022-11-12T12:01:05.339Z,43.95
2022-11-12T12:04:00.261Z,41.67
2022-11-12T12:07:09.383Z,41.13
2022-11-12T12:09:54.784Z,37.50
2022-11-12T12:12:55.668Z,40.10
2022-11-12T12:16:24.968Z,39.20
2022-11-12T12:19:29.308Z,37.03
2022-11-12T12:22:24.133Z,36.55
2022-11-12T12:25:16.749Z,34.03
2022-11-12T12:28:08.060Z,38.28
2022-11-12T12:30:58.772Z,34.22
2022-11-12T12:33:52.895Z,34.60
2022-11-12T12:36:41.196Z,36.13
2022-11-12T12:39:35.968Z,32.72
2022-11-12T12:42:27.254Z,37.35
2022-11-12T12:45:21.405Z,30.42
2022-11-12T12:48:16.617Z,33.63
2022-11-12T12:51:02.121Z,34.08
2022-11-12T12:53:48.283Z,33.28
2022-11-12T12:56:33.695Z,27.52
2022-11-12T12:59:22.268Z,26.90
2022-11-12T13:02:20.380Z,27.35
2022-11-12T13:05:06.971Z,26.05
2022-11-12T13:07:53.418Z,27.02
2022-11-12T13:10:38.967Z,29.88
2022-11-12T13:13:32.197Z,26.65
2022-11-12T13:16:50.515Z,28.58
2022-11-12T13:19:46.209Z,25.55
2022-11-12T13:22:37.896Z,27.85
2022-11-12T13:25:31.717Z,28.73
2022-11-12T13:28:18.094Z,28.45
2022-11-12T13:31:04.567Z,24.75
2022-11-12T13:33:50.323Z,26.08
2022-11-12T13:36:35.800Z,23.83
2022-11-12T13:39:23.127Z,29.45
2022-11-12T13:42:37.101Z,25.83
2022-11-12T13:45:25.374Z,26.58
2022-11-12T13:48:17.800Z,23.13
2022-11-12T13:51:11.743Z,23.77
2022-11-12T13:53:57.275Z,27.60
2022-11-12T13:57:15.854Z,26.00
2022-11-12T14:00:32.019Z,25.90
2022-11-12T14:03:19.306Z,26.50
2022-11-12T14:06:19.125Z,26.67
2022-11-12T14:09:52.407Z,25.23
2022-11-12T14:12:58.194Z,25.90
2022-11-12T14:15:56.247Z,34.42
2022-11-12T14:19:09.342Z,28.58
2022-11-12T14:22:18.784Z,26.95
2022-11-12T14:25:16.648Z,29.80
2022-11-12T14:28:01.802Z,28.75
2022-11-12T14:30:47.931Z,33.47
2022-11-12T14:33:33.527Z,31.33
2022-11-12T14:36:20.859Z,44.25
2022-11-12T14:39:07.457Z,36.13
2022-11-12T14:41:55.908Z,34.45
2022-11-12T14:44:41.855Z,40.67
2022-11-12T14:47:27.898Z,34.88
2022-11-12T14:50:40.236Z,40.40
2022-11-12T14:53:37.820Z,42.80
2022-11-12T14:56:35.742Z,43.95
2022-11-12T14:59:22.580Z,47.88
2022-11-12T15:02:50.248Z,39.90
2022-11-12T15:05:27.478Z,74.95
2022-11-12T15:08:13.234Z,48.40
2022-11-12T15:11:46.151Z,41.70
2022-11-12T15:17:32.545Z,37.92
2022-11-12T15:20:19.549Z,37.78
2022-11-12T15:23:06.034Z,35.88
2022-11-12T15:26:01.851Z,35.08
2022-11-12T15:29:02.109Z,36.63
2022-11-12T15:31:59.769Z,39.25
2022-11-12T15:34:48.251Z,37.60
2022-11-12T15:37:42.516Z,33.00
2022-11-12T15:40:28.902Z,38.92
2022-11-12T15:43:23.495Z,31.80
2022-11-12T15:46:15.563Z,42.05
2022-11-12T15:49:00.912Z,36.50
2022-11-12T15:51:46.871Z,36.15
2022-11-12T15:54:34.615Z,35.60
2022-11-12T15:57:28.511Z,41.60
2022-11-12T16:00:19.394Z,34.53
2022-11-12T16:03:16.940Z,37.63
2022-11-12T16:06:08.312Z,41.97
2022-11-12T16:08:54.985Z,35.42
2022-11-12T16:11:40.375Z,35.08
2022-11-12T16:14:27.323Z,37.13
2022-11-12T16:17:18.201Z,36.60
2022-11-12T16:20:13.628Z,36.33
2022-11-12T16:22:59.115Z,34.55
2022-11-12T16:25:45.465Z,39.53
2022-11-12T16:28:30.969Z,34.00
2022-11-12T16:31:16.865Z,35.72
2022-11-12T16:34:02.299Z,33.95
2022-11-12T16:36:48.331Z,31.92
2022-11-12T16:39:34.060Z,38.08
2022-11-12T16:42:19.724Z,34.33
2022-11-12T16:45:05.681Z,39.35
2022-11-12T16:47:54.015Z,31.05
2022-11-12T16:50:39.902Z,36.53
2022-11-12T16:53:25.926Z,37.25
2022-11-12T16:56:17.718Z,38.33
2022-11-12T16:59:03.355Z,37.72
2022-11-12T17:01:49.209Z,40.28
2022-11-12T17:04:35.421Z,36.53
2022-11-12T17:07:21.415Z,36.10
2022-11-12T17:10:07.689Z,33.63
2022-11-12T17:12:53.382Z,32.85
2022-11-12T17:15:42.701Z,33.08
2022-11-12T17:18:32.900Z,32.92
2022-11-12T17:21:22.309Z,30.63
2022-11-12T17:24:10.407Z,30.38
2022-11-12T17:26:56.086Z,33.80
2022-11-12T17:29:41.292Z,29.98
2022-11-12T17:32:27.037Z,35.78
2022-11-12T17:35:12.174Z,30.80
2022-11-12T17:38:00.416Z,33.92
2022-11-12T17:40:46.171Z,33.67
2022-11-12T17:43:32.634Z,33.45
2022-11-12T17:46:17.940Z,34.03
2022-11-12T17:49:04.081Z,32.10
2022-11-12T17:51:50.232Z,32.30
2022-11-12T17:54:36.670Z,34.10
2022-11-12T17:57:24.739Z,33.85
2022-11-12T18:00:11.062Z,34.03
2022-11-12T18:02:57.599Z,32.67
2022-11-12T18:05:44.026Z,34.95
2022-11-12T18:08:29.530Z,36.15
2022-11-12T18:11:16.241Z,37.08
2022-11-12T18:14:07.400Z,37.17
2022-11-12T18:16:53.667Z,35.65
2022-11-12T18:19:38.938Z,39.10
2022-11-12T18:22:25.584Z,38.53
2022-11-12T18:25:11.921Z,35.05
2022-11-12T18:27:57.679Z,34.50
2022-11-12T18:30:43.129Z,36.15
2022-11-12T18:33:30.919Z,38.22
2022-11-12T18:36:19.523Z,35.53
2022-11-12T18:39:07.672Z,38.08
2022-11-12T18:41:55.363Z,40.90
2022-11-12T18:44:41.723Z,39.17
2022-11-12T18:47:30.825Z,36.20
2022-11-12T18:50:17.787Z,39.55
2022-11-12T18:53:03.578Z,37.92
2022-11-12T18:55:51.350Z,38.83
2022-11-12T18:58:36.825Z,42.80
2022-11-12T19:01:24.331Z,39.25
2022-11-12T19:04:12.018Z,43.72
2022-11-12T19:06:57.968Z,42.00
2022-11-12T19:09:43.858Z,42.47
2022-11-12T19:12:29.854Z,45.33
2022-11-12T19:15:21.614Z,39.90
2022-11-12T19:18:10.650Z,43.22
2022-11-12T19:21:04.569Z,49.47
2022-11-12T19:23:54.088Z,49.33
2022-11-12T19:26:40.503Z,49.33
2022-11-12T19:29:26.312Z,52.95
2022-11-12T19:32:12.968Z,50.60
2022-11-12T19:34:58.787Z,50.97
2022-11-12T19:37:44.639Z,49.95
2022-11-12T19:40:30.931Z,56.50
2022-11-12T19:43:16.616Z,54.50
2022-11-12T19:46:02.753Z,55.63
2022-11-12T19:48:48.912Z,58.92
2022-11-12T19:51:35.103Z,52.88
2022-11-12T19:54:20.511Z,56.60
2022-11-12T19:57:06.470Z,52.38
2022-11-12T19:59:51.882Z,52.45
2022-11-12T20:02:37.706Z,57.55
2022-11-12T20:05:23.178Z,58.03
2022-11-12T20:08:08.923Z,58.13
2022-11-12T20:10:54.639Z,55.05
2022-11-12T20:13:40.359Z,61.67
2022-11-12T20:16:26.033Z,58.70
2022-11-12T20:19:12.152Z,64.57
2022-11-12T20:21:57.721Z,57.03
2022-11-12T20:24:43.273Z,59.35
2022-11-12T20:27:29.060Z,53.97
2022-11-12T20:30:14.578Z,60.78
2022-11-12T20:33:00.013Z,60.63
2022-11-12T20:35:45.811Z,64.47
2022-11-12T20:38:31.517Z,57.50
2022-11-12T20:41:23.102Z,68.68
2022-11-12T20:44:08.416Z,59.93
2022-11-12T20:46:54.231Z,65.53
2022-11-12T20:49:39.469Z,69.53
2022-11-12T20:52:24.833Z,65.55
2022-11-12T20:55:10.213Z,62.83
2022-11-12T20:57:56.221Z,69.95
2022-11-12T21:00:41.615Z,65.05
2022-11-12T21:03:27.345Z,66.63
2022-11-12T21:06:22.337Z,73.80
2022-11-12T21:09:07.749Z,67.47
2022-11-12T21:11:53.623Z,67.65
2022-11-12T21:14:39.198Z,66.85
2022-11-12T21:17:24.473Z,69.93
2022-11-12T21:20:10.872Z,74.70
2022-11-12T21:22:57.493Z,69.78
2022-11-12T21:25:43.326Z,67.45
2022-11-12T21:28:29.256Z,70.82
2022-11-12T21:31:18.503Z,68.03
2022-11-12T21:34:04.744Z,65.10
2022-11-12T21:36:50.684Z,67.35
2022-11-12T21:39:36.268Z,68.38
2022-11-12T21:42:22.270Z,67.95
2022-11-12T21:45:08.793Z,68.35
2022-11-12T21:47:54.389Z,69.45
2022-11-12T21:50:39.952Z,69.95
2022-11-12T21:53:25.580Z,69.20
2022-11-12T21:56:17.398Z,69.57
2022-11-12T21:59:04.453Z,68.43
2022-11-12T22:01:49.891Z,69.40
2022-11-12T22:04:35.360Z,69.20
2022-11-12T22:07:21.405Z,69.22
2022-11-12T22:10:07.624Z,66.20
2022-11-12T22:13:24.805Z,71.68
2022-11-12T22:15:59.156Z,70.00
2022-11-12T22:18:46.885Z,67.18
2022-11-12T22:21:39.399Z,66.63
2022-11-12T22:24:25.625Z,75.25
2022-11-12T22:27:11.421Z,73.10
2022-11-12T22:29:57.214Z,76.40
2022-11-12T22:32:43.084Z,68.03
2022-11-12T22:35:28.757Z,72.43
2022-11-12T22:38:14.623Z,72.22
2022-11-12T22:41:05.837Z,76.43
2022-11-12T22:43:57.009Z,71.78
2022-11-12T22:46:42.663Z,71.75
2022-11-12T22:49:28.697Z,72.82
2022-11-12T22:52:14.106Z,71.03
2022-11-12T22:55:00.056Z,76.82
2022-11-12T22:57:45.585Z,71.65
2022-11-12T23:00:32.173Z,84.40
2022-11-12T23:03:17.713Z,74.57
2022-11-12T23:06:06.199Z,82.05
2022-11-12T23:08:53.393Z,74.90
2022-11-12T23:11:39.024Z,79.40
2022-11-12T23:14:24.603Z,76.35
2022-11-12T23:17:10.275Z,82.20
2022-11-12T23:19:55.950Z,87.68
2022-11-12T23:22:41.454Z,76.72
2022-11-12T23:25:26.935Z,81.55
2022-11-12T23:28:12.710Z,75.22
2022-11-12T23:30:58.586Z,73.45
2022-11-12T23:33:46.107Z,77.50
2022-11-12T23:36:32.576Z,80.13
2022-11-12T23:39:18.619Z,72.75
2022-11-12T23:42:04.143Z,80.38
2022-11-12T23:44:50.300Z,67.38
2022-11-12T23:47:36.042Z,68.95
2022-11-12T23:50:21.864Z,75.00
2022-11-12T23:53:07.066Z,74.22
2022-11-12T23:55:53.370Z,85.68
2022-11-12T23:58:40.052Z,70.72
